White Lake, New York
Current Conditions -  °F | °C
As of 9:15 AM on Monday 26 Jan 2015 (Local Time) from KMSV Reporting Station
Overcast Overcast  
Wind Chill: -4°   Ceiling: 2000
Heat Index: 12°   Visibility: 4mi
Dew Point:   Wind: 16mph
Humidity: 67%   Direction: 90°E
Pressure: 29.92"   Gusts: NA
Location:  41.68°N, 74.83°W
Report Text: KMSV 261415Z AUTO 09014KT 4SM BKN020 OVC028 M11/M16 A2992 RMK AO1
Loading
Personal Weather Stations






























Interactive Weather Map New forecast layout! Learn more

10-Day Weather Forecast

Advertisements
Track Severe Weather on mobile